TimeCST,TemperatureF,Dew PointF,Humidity,Sea Level PressureIn,VisibilityMPH,Wind Direction,Wind SpeedMPH,Gust SpeedMPH,PrecipitationIn,Events,Conditions,WindDirDegrees,DateUTC
12:55 AM,52.7,23.9,33,29.83,10.0,NNW,6.9,-,N/A,,Clear,330,2013-01-30 06:55:00
1:55 AM,51.3,20.5,30,29.84,10.0,NW,5.8,-,N/A,,Clear,310,2013-01-30 07:55:00
2:55 AM,52.9,17.6,25,29.86,10.0,WNW,10.4,-,N/A,,Clear,300,2013-01-30 08:55:00
3:55 AM,52.3,18.0,26,29.88,10.0,WNW,11.5,-,N/A,,Clear,300,2013-01-30 09:55:00
4:55 AM,52.0,17.8,26,29.90,10.0,WNW,11.5,-,N/A,,Clear,300,2013-01-30 10:55:00
5:55 AM,50.9,17.2,26,29.94,10.0,WNW,10.4,-,N/A,,Clear,290,2013-01-30 11:55:00
6:55 AM,51.1,16.7,26,29.97,10.0,WNW,19.6,25.3,N/A,,Clear,300,2013-01-30 12:55:00
7:55 AM,50.4,18.9,29,30.03,10.0,NW,16.1,25.3,N/A,,Clear,310,2013-01-30 13:55:00
8:55 AM,50.7,24.8,36,30.08,10.0,NW,26.5,33.4,N/A,,Clear,310,2013-01-30 14:55:00
9:55 AM,52.0,24.3,34,30.10,10.0,NW,23.0,33.4,N/A,,Clear,320,2013-01-30 15:55:00
10:55 AM,56.3,21.0,25,30.11,10.0,NW,21.9,32.2,N/A,,Clear,310,2013-01-30 16:55:00
11:55 AM,57.6,17.6,21,30.12,10.0,WNW,23.0,39.1,N/A,,Clear,300,2013-01-30 17:55:00
12:55 PM,58.5,17.8,21,30.12,10.0,WNW,23.0,34.5,N/A,,Clear,300,2013-01-30 18:55:00
1:55 PM,59.7,15.4,18,30.11,10.0,WNW,20.7,27.6,N/A,,Clear,300,2013-01-30 19:55:00
2:55 PM,60.4,14.5,17,30.10,10.0,NW,23.0,26.5,N/A,,Clear,310,2013-01-30 20:55:00
3:55 PM,60.3,9.3,13,30.10,10.0,NW,24.2,31.1,N/A,,Clear,310,2013-01-30 21:55:00
4:55 PM,59.4,8.6,13,30.12,10.0,NW,17.3,-,N/A,,Clear,310,2013-01-30 22:55:00
5:55 PM,56.3,9.7,16,30.13,10.0,NW,16.1,-,N/A,,Clear,320,2013-01-30 23:55:00
6:55 PM,52.0,11.8,20,30.15,10.0,NW,5.8,-,N/A,,Clear,320,2013-01-31 00:55:00
7:55 PM,48.9,13.8,25,30.18,10.0,NNW,5.8,-,N/A,,Clear,340,2013-01-31 01:55:00
8:55 PM,46.2,15.3,29,30.21,10.0,Calm,Calm,-,N/A,,Clear,0,2013-01-31 02:55:00
9:55 PM,41.4,20.8,44,30.23,10.0,NNW,3.5,-,N/A,,Clear,330,2013-01-31 03:55:00
10:55 PM,37.9,22.5,54,30.23,10.0,Calm,Calm,-,N/A,,Clear,0,2013-01-31 04:55:00
11:55 PM,34.7,23.4,63,30.25,10.0,NW,4.6,-,N/A,,Clear,310,2013-01-31 05:55:00